createdAt,value
2019-03-08T05:03:27.643Z,0
2019-03-08T05:07:04.173Z,0
2019-03-08T05:10:32.140Z,1
2019-03-08T05:13:59.992Z,0
2019-03-08T05:17:27.847Z,1
2019-03-08T05:20:55.760Z,2
2019-03-08T05:24:23.602Z,5
2019-03-08T05:27:51.466Z,9
2019-03-08T05:31:19.442Z,12
2019-03-08T05:34:47.282Z,19
2019-03-08T05:38:15.153Z,28
2019-03-08T05:41:43.012Z,39
2019-03-08T05:45:10.867Z,45
2019-03-08T05:48:38.734Z,67
2019-03-08T05:52:06.719Z,43
2019-03-08T05:55:34.560Z,79
2019-03-08T05:59:02.416Z,160
2019-03-08T06:02:30.280Z,140
2019-03-08T06:05:58.128Z,118
2019-03-08T06:09:26.088Z,165
2019-03-08T06:12:53.944Z,230
2019-03-08T06:16:21.781Z,182
2019-03-08T06:19:49.634Z,531
2019-03-08T06:23:17.490Z,832
2019-03-08T06:26:45.330Z,819
2019-03-08T06:30:13.184Z,1082
2019-03-08T06:33:42.030Z,1195
2019-03-08T06:37:09.881Z,1198
2019-03-08T06:40:37.719Z,623
2019-03-08T06:44:05.573Z,938
2019-03-08T06:47:33.445Z,927
2019-03-08T06:51:01.286Z,845
2019-03-08T06:54:29.192Z,714
2019-03-08T06:57:57.043Z,1057
2019-03-08T07:01:24.887Z,1166
2019-03-08T07:04:52.741Z,703
2019-03-08T07:08:20.586Z,964
2019-03-08T07:11:48.435Z,1187
2019-03-08T07:15:16.273Z,1110
2019-03-08T07:18:44.122Z,1119
2019-03-08T07:22:11.978Z,1327
2019-03-08T07:25:39.818Z,1462
2019-03-08T07:29:09.659Z,1116
2019-03-08T07:32:37.510Z,1207
2019-03-08T07:36:06.341Z,1215
2019-03-08T07:39:34.192Z,1225
2019-03-08T07:43:02.041Z,1579
2019-03-08T07:46:29.909Z,1762
2019-03-08T07:49:57.761Z,1635
2019-03-08T07:53:25.615Z,1639
2019-03-08T07:56:53.457Z,1850
2019-03-08T08:00:21.318Z,1938
2019-03-08T08:03:49.177Z,1603
2019-03-08T08:07:17.020Z,1476
2019-03-08T08:10:44.875Z,1507
2019-03-08T08:14:12.729Z,1510
2019-03-08T08:17:40.596Z,1681
2019-03-08T08:21:08.581Z,1608
2019-03-08T08:24:36.617Z,1621
2019-03-08T08:28:04.551Z,2048
2019-03-08T08:31:32.519Z,2523
2019-03-08T08:35:00.419Z,1920
2019-03-08T08:38:28.275Z,1491
2019-03-08T08:41:56.203Z,1221
2019-03-08T08:45:24.055Z,2319
2019-03-08T08:48:51.981Z,2981
2019-03-08T08:52:19.906Z,3329
2019-03-08T08:55:47.790Z,2945
2019-03-08T08:59:15.670Z,2834
2019-03-08T09:02:43.525Z,2672
2019-03-08T09:06:11.418Z,3832
2019-03-08T09:09:39.334Z,4135
2019-03-08T09:13:07.223Z,5307
2019-03-08T09:16:35.096Z,4091
2019-03-08T09:20:03.020Z,4495
2019-03-08T09:23:30.883Z,4801
2019-03-08T09:26:58.849Z,5716
2019-03-08T09:30:26.765Z,7156
2019-03-08T09:33:54.688Z,4622
2019-03-08T09:37:22.581Z,6369
2019-03-08T09:40:50.463Z,5957
2019-03-08T09:44:19.397Z,6618
2019-03-08T09:47:47.260Z,6593
2019-03-08T09:51:15.101Z,8814
2019-03-08T09:54:43.945Z,7075
2019-03-08T09:58:11.795Z,6310
2019-03-08T10:01:39.641Z,10063
2019-03-08T10:05:08.475Z,9828
2019-03-08T10:08:36.319Z,9356
2019-03-08T10:12:04.170Z,7067
2019-03-08T10:15:32.008Z,7467
2019-03-08T10:18:59.867Z,7171
2019-03-08T10:22:27.721Z,7704
2019-03-08T10:25:55.587Z,6848
2019-03-08T10:29:24.438Z,7825
2019-03-08T10:32:52.288Z,8181
2019-03-08T10:36:20.131Z,8244
2019-03-08T10:39:47.986Z,10290
2019-03-08T10:43:15.851Z,8219
2019-03-08T10:46:43.694Z,11778
2019-03-08T10:50:11.549Z,11315
2019-03-08T10:53:39.402Z,11772
2019-03-08T10:57:07.237Z,12743
2019-03-08T11:00:35.093Z,12736
2019-03-08T11:04:02.946Z,20200
2019-03-08T11:07:39.808Z,12559
2019-03-08T11:11:09.657Z,9870
2019-03-08T11:14:37.534Z,10165
2019-03-08T11:18:05.380Z,9194
2019-03-08T11:21:34.255Z,44616
2019-03-08T11:25:08.348Z,39480
2019-03-08T11:28:34.979Z,32208
2019-03-08T11:32:02.850Z,39088
2019-03-08T11:35:30.741Z,54784
2019-03-08T11:38:58.626Z,9172
2019-03-08T11:42:26.567Z,59360
2019-03-08T11:45:55.458Z,65535
2019-03-08T11:49:23.304Z,65535
2019-03-08T11:52:51.184Z,52192
2019-03-08T11:56:19.901Z,65535
2019-03-08T11:59:48.860Z,65535
2019-03-08T12:03:16.710Z,65535
2019-03-08T12:06:45.509Z,65535
2019-03-08T12:10:14.101Z,65535
2019-03-08T12:13:41.988Z,65535
2019-03-08T12:17:10.906Z,65535
2019-03-08T12:20:39.622Z,65535
2019-03-08T12:24:07.535Z,65535
2019-03-08T12:27:35.474Z,65535
2019-03-08T12:31:04.360Z,65535
2019-03-08T12:34:32.250Z,65535
2019-03-08T12:38:00.114Z,65535
2019-03-08T12:41:28.094Z,65535
2019-03-08T12:44:55.976Z,65535
2019-03-08T12:48:25.880Z,65535
2019-03-08T12:51:53.823Z,65535
2019-03-08T12:55:21.756Z,65535
2019-03-08T12:58:49.685Z,65535
2019-03-08T13:02:17.577Z,65535
2019-03-08T13:05:45.473Z,65535
2019-03-08T13:09:15.355Z,65535
2019-03-08T13:12:43.225Z,51168
2019-03-08T13:16:11.095Z,65535
2019-03-08T13:19:38.976Z,65535
2019-03-08T13:23:06.828Z,65535
2019-03-08T13:26:34.745Z,62480
2019-03-08T13:30:02.699Z,53464
2019-03-08T13:33:32.564Z,65535
2019-03-08T13:37:00.413Z,65535
2019-03-08T13:40:28.284Z,42272
2019-03-08T13:43:56.137Z,65535
2019-03-08T13:47:25.001Z,39472
2019-03-08T13:50:53.869Z,65535
2019-03-08T13:54:21.744Z,65535
2019-03-08T13:57:49.618Z,65535
2019-03-08T14:01:17.594Z,53776
2019-03-08T14:04:45.466Z,27896
2019-03-08T14:08:13.347Z,31936
2019-03-08T14:11:41.238Z,24088
2019-03-08T14:15:10.107Z,44344
2019-03-08T14:18:37.999Z,31280
2019-03-08T14:22:06.517Z,64768
2019-03-08T14:25:34.510Z,58312
2019-03-08T14:29:03.333Z,59256
2019-03-08T14:32:31.206Z,22360
2019-03-08T14:36:02.876Z,46728
2019-03-08T14:39:30.998Z,14567
2019-03-08T14:42:58.886Z,14254
2019-03-08T14:46:27.468Z,39360
2019-03-08T14:49:59.137Z,52448
2019-03-08T14:53:32.632Z,7738
2019-03-08T14:56:59.300Z,30376
2019-03-08T15:00:30.411Z,10867
2019-03-08T15:04:00.069Z,7629
2019-03-08T15:07:27.971Z,8005
2019-03-08T15:10:55.855Z,7049
2019-03-08T15:14:23.738Z,6353
2019-03-08T15:17:55.292Z,6719
2019-03-08T15:21:22.442Z,5688
2019-03-08T15:24:51.578Z,5493
2019-03-08T15:28:20.452Z,26664
2019-03-08T15:31:48.338Z,23664
2019-03-08T15:35:16.267Z,5286
2019-03-08T15:38:44.130Z,4914
2019-03-08T15:42:12.040Z,4429
2019-03-08T15:45:44.354Z,3856
2019-03-08T15:49:12.715Z,3520
2019-03-08T15:52:40.584Z,3541
2019-03-08T15:56:08.431Z,3478
2019-03-08T15:59:36.342Z,3042
2019-03-08T16:03:05.214Z,2423
2019-03-08T16:06:33.089Z,2013
2019-03-08T16:10:01.984Z,2343
2019-03-08T16:13:30.880Z,1901
2019-03-08T16:16:58.729Z,1278
2019-03-08T16:20:26.899Z,1197
2019-03-08T16:24:01.616Z,859
2019-03-08T16:27:29.464Z,843
2019-03-08T16:30:57.317Z,717
2019-03-08T16:34:25.204Z,720
2019-03-08T16:37:53.065Z,704
2019-03-08T16:41:20.929Z,505
2019-03-08T16:44:48.785Z,428
2019-03-08T16:48:16.655Z,289
2019-03-08T16:51:44.547Z,226
2019-03-08T16:55:12.522Z,192
2019-03-08T16:58:40.384Z,124
2019-03-08T17:02:08.341Z,96
2019-03-08T17:05:36.217Z,69
2019-03-08T17:09:04.104Z,42
2019-03-08T17:12:31.943Z,25
2019-03-08T17:16:00.864Z,14
2019-03-08T17:19:28.740Z,8
2019-03-08T17:22:56.576Z,5
2019-03-08T17:26:25.437Z,3
2019-03-08T17:29:53.291Z,2
2019-03-08T17:33:21.141Z,1
2019-03-08T17:36:49.003Z,1
2019-03-08T17:40:16.886Z,0
2019-03-08T17:43:45.716Z,0
2019-03-08T17:47:13.598Z,0
2019-03-08T17:50:41.475Z,0
2019-03-08T17:54:09.329Z,0
2019-03-08T17:57:37.197Z,0
2019-03-08T18:01:05.074Z,0
2019-03-08T18:04:32.924Z,0
2019-03-08T18:08:00.783Z,0
2019-03-08T18:11:29.653Z,0
2019-03-08T18:15:06.660Z,0
2019-03-08T18:18:34.512Z,0
2019-03-08T18:22:05.771Z,0
2019-03-08T18:25:33.623Z,0
2019-03-08T18:29:01.505Z,0
2019-03-08T18:32:29.364Z,0
2019-03-08T18:35:58.155Z,0
2019-03-08T18:39:26.021Z,0
2019-03-08T18:42:53.905Z,0
2019-03-08T18:46:22.523Z,0
2019-03-08T18:49:50.391Z,0
2019-03-08T18:53:18.247Z,0
2019-03-08T18:56:46.102Z,0
2019-03-08T19:00:13.983Z,0
2019-03-08T19:03:47.651Z,0
2019-03-08T19:07:15.959Z,0
2019-03-08T19:10:43.857Z,0
2019-03-08T19:14:11.756Z,0
2019-03-08T19:17:39.636Z,0
2019-03-08T19:21:07.529Z,0
2019-03-08T19:24:35.469Z,0
2019-03-08T19:28:03.330Z,0
2019-03-08T19:31:31.233Z,0
2019-03-08T19:34:59.107Z,0
2019-03-08T19:38:26.965Z,0
2019-03-08T19:41:54.965Z,0
2019-03-08T19:45:23.840Z,0
2019-03-08T19:48:51.749Z,0
2019-03-08T19:52:23.039Z,0
2019-03-08T19:55:50.917Z,0
2019-03-08T19:59:18.894Z,0
2019-03-08T20:02:47.940Z,0
2019-03-08T20:06:20.213Z,0
2019-03-08T20:09:48.971Z,0
2019-03-08T20:13:20.264Z,0
2019-03-08T20:16:52.613Z,0
2019-03-08T20:20:23.517Z,0
2019-03-08T20:23:51.383Z,0
2019-03-08T20:27:19.290Z,0
2019-03-08T20:30:47.207Z,0
2019-03-08T20:34:16.103Z,0
2019-03-08T20:37:43.964Z,0
2019-03-08T20:41:11.858Z,0
2019-03-08T20:44:39.802Z,0
2019-03-08T20:48:07.798Z,0
2019-03-08T20:51:35.675Z,0
2019-03-08T20:55:03.662Z,0
2019-03-08T20:58:32.519Z,0
2019-03-08T21:02:00.411Z,0
2019-03-08T21:05:28.349Z,0
2019-03-08T21:08:56.225Z,0
2019-03-08T21:12:24.164Z,0
2019-03-08T21:15:52.073Z,0
2019-03-08T21:19:19.927Z,0
2019-03-08T21:22:47.960Z,0
2019-03-08T21:26:15.950Z,0
2019-03-08T21:29:43.809Z,0
2019-03-08T21:33:11.828Z,0
2019-03-08T21:36:39.621Z,0
2019-03-08T21:40:07.488Z,0
2019-03-08T21:43:35.358Z,0
2019-03-08T21:47:03.216Z,0
2019-03-08T21:50:31.066Z,0
2019-03-08T21:53:59.930Z,0
2019-03-08T21:57:28.864Z,0
2019-03-08T22:00:56.797Z,0
2019-03-08T22:04:25.331Z,0
2019-03-08T22:07:54.256Z,0
2019-03-08T22:11:22.100Z,0
2019-03-08T22:14:49.977Z,0
2019-03-08T22:18:18.835Z,0
2019-03-08T22:21:46.702Z,0
2019-03-08T22:25:14.576Z,0
2019-03-08T22:28:42.457Z,0
2019-03-08T22:32:17.851Z,0
2019-03-08T22:35:45.705Z,0
2019-03-08T22:39:13.555Z,0
2019-03-08T22:42:42.477Z,0
2019-03-08T22:46:10.329Z,0
2019-03-08T22:49:38.180Z,0
2019-03-08T22:53:06.019Z,0
2019-03-08T22:56:33.893Z,0
2019-03-08T23:00:01.749Z,0
